Time;durP1;ratioP1;P1;durP2;ratioP2;P2;SDS_P1;SDS_P2;PMS_P1;PMS_P2;Temp;Humidity;BMP_temperature;BMP_pressure;BME280_temperature;BME280_humidity;BME280_pressure;Samples;Min_cycle;Max_cycle;Signal;HPM_P1;HPM_P2
2023/05/30 00:02:02;;;;;;;11.80;4.10;;;;;;;;;;5014936;28;20216;-81
2023/05/30 00:04:31;;;;;;;15.27;3.63;;;;;;;;;;5031407;28;20251;-80
2023/05/30 00:06:57;;;;;;;8.60;3.30;;;;;;;;;;5032033;28;20225;-82
2023/05/30 00:09:22;;;;;;;7.93;3.17;;;;;;;;;;4991299;28;20229;-79
2023/05/30 00:11:54;;;;;;;9.73;3.43;;;;;;;;;;5013824;28;20224;-82
2023/05/30 00:14:20;;;;;;;11.17;3.40;;;;;;;;;;5005123;28;20720;-82
2023/05/30 00:16:51;;;;;;;8.10;3.70;;;;;;;;;;5030211;28;20220;-82
2023/05/30 00:19:19;;;;;;;10.13;3.80;;;;;;;;;;5026380;28;20461;-84
2023/05/30 00:21:45;;;;;;;10.73;3.93;;;;;;;;;;5001418;28;20309;-79
2023/05/30 00:24:13;;;;;;;8.40;4.10;;;;;;;;;;5009284;28;20263;-81
2023/05/30 00:26:39;;;;;;;10.17;3.90;;;;;;;;;;4996434;28;20212;-83
2023/05/30 00:29:04;;;;;;;9.83;3.90;;;;;;;;;;5015783;28;20220;-83
2023/05/30 00:31:32;;;;;;;9.83;3.93;;;;;;;;;;5047759;28;20226;-81
2023/05/30 00:33:59;;;;;;;8.53;3.70;;;;;;;;;;5008147;28;20265;-83
2023/05/30 00:36:25;;;;;;;12.53;4.00;;;;;;;;;;5006436;28;20220;-82
2023/05/30 00:38:50;;;;;;;9.67;3.73;;;;;;;;;;4992627;28;20213;-83
2023/05/30 00:41:16;;;;;;;8.37;3.57;;;;;;;;;;5015131;28;20304;-80
2023/05/30 00:43:42;;;;;;;10.23;3.90;;;;;;;;;;4987976;28;20220;-81
2023/05/30 00:46:13;;;;;;;9.40;3.67;;;;;;;;;;4994294;28;20622;-82
2023/05/30 00:48:40;;;;;;;13.13;4.30;;;;;;;;;;5014976;28;20270;-81
2023/05/30 00:51:08;;;;;;;12.27;4.40;;;;;;;;;;5010763;28;20295;-83
2023/05/30 00:53:34;;;;;;;12.83;4.00;;;;;;;;;;5010662;28;20220;-81
2023/05/30 00:56:00;;;;;;;8.53;3.57;;;;;;;;;;5029876;28;20247;-81
2023/05/30 00:58:28;;;;;;;8.67;3.87;;;;;;;;;;5025813;28;20216;-83
2023/05/30 01:00:55;;;;;;;10.67;4.07;;;;;;;;;;5029380;28;20208;-83
2023/05/30 01:03:24;;;;;;;7.73;3.80;;;;;;;;;;4991324;28;20243;-83
2023/05/30 01:05:53;;;;;;;10.00;4.07;;;;;;;;;;5005211;28;20278;-84
2023/05/30 01:08:19;;;;;;;7.93;3.63;;;;;;;;;;5023717;28;20998;-82
2023/05/30 01:10:47;;;;;;;6.63;3.90;;;;;;;;;;4990087;28;20212;-83
2023/05/30 01:13:28;;;;;;;8.17;3.97;;;;;;;;;;4989255;28;20224;-82
2023/05/30 01:16:07;;;;;;;9.37;3.63;;;;;;;;;;5039621;28;20220;-82
2023/05/30 01:18:44;;;;;;;9.57;4.00;;;;;;;;;;5006293;28;20212;-82
2023/05/30 01:21:11;;;;;;;8.60;3.77;;;;;;;;;;5025566;28;20207;-83
2023/05/30 01:23:45;;;;;;;6.63;3.33;;;;;;;;;;5006585;28;20220;-83
2023/05/30 01:26:19;;;;;;;10.10;3.93;;;;;;;;;;5021090;28;20213;-84
2023/05/30 01:28:45;;;;;;;9.03;4.00;;;;;;;;;;5007853;28;20240;-81
2023/05/30 01:31:14;;;;;;;8.63;3.90;;;;;;;;;;4997973;28;20213;-82
2023/05/30 01:33:41;;;;;;;9.60;4.10;;;;;;;;;;5005331;28;20242;-82
2023/05/30 01:36:07;;;;;;;9.80;4.00;;;;;;;;;;5039375;28;20209;-84
2023/05/30 01:38:34;;;;;;;9.27;4.20;;;;;;;;;;5004027;28;20281;-82
2023/05/30 01:41:00;;;;;;;11.27;3.97;;;;;;;;;;5017005;28;20871;-83
2023/05/30 01:43:34;;;;;;;11.47;4.20;;;;;;;;;;5031916;28;20724;-83
2023/05/30 01:46:23;;;;;;;10.67;4.30;;;;;;;;;;5017920;28;20221;-81
2023/05/30 01:49:11;;;;;;;8.80;4.10;;;;;;;;;;4983415;28;20255;-82
2023/05/30 01:51:58;;;;;;;8.47;3.87;;;;;;;;;;5002141;28;20231;-82
2023/05/30 01:54:24;;;;;;;9.33;4.10;;;;;;;;;;5030578;28;20223;-81
2023/05/30 01:57:05;;;;;;;9.40;3.97;;;;;;;;;;4997826;28;20216;-81
2023/05/30 01:59:31;;;;;;;8.83;4.17;;;;;;;;;;4996972;28;20265;-82
2023/05/30 02:01:56;;;;;;;11.27;4.13;;;;;;;;;;5017505;28;20247;-82
2023/05/30 02:04:24;;;;;;;7.77;4.03;;;;;;;;;;4983306;28;20236;-81
2023/05/30 02:06:50;;;;;;;11.03;4.37;;;;;;;;;;5006584;28;20232;-82
2023/05/30 02:09:16;;;;;;;7.47;4.07;;;;;;;;;;4983411;28;20220;-80
2023/05/30 02:11:42;;;;;;;10.63;4.00;;;;;;;;;;4994613;28;20225;-81
2023/05/30 02:14:10;;;;;;;8.77;4.30;;;;;;;;;;4983640;28;20217;-82
2023/05/30 02:16:36;;;;;;;8.77;4.20;;;;;;;;;;5008654;28;20220;-79
2023/05/30 02:19:02;;;;;;;11.27;4.00;;;;;;;;;;5022762;28;20276;-81
2023/05/30 02:21:28;;;;;;;9.67;4.30;;;;;;;;;;5001265;28;21021;-82
2023/05/30 02:23:53;;;;;;;11.10;4.47;;;;;;;;;;4995895;28;20606;-81
2023/05/30 02:26:19;;;;;;;6.47;4.10;;;;;;;;;;5007092;28;20228;-81
2023/05/30 02:28:47;;;;;;;9.53;4.37;;;;;;;;;;5011653;28;20999;-84
2023/05/30 02:31:15;;;;;;;7.73;4.77;;;;;;;;;;4995705;28;20277;-81
2023/05/30 02:33:43;;;;;;;7.30;4.03;;;;;;;;;;4999813;28;20279;-80
2023/05/30 02:36:24;;;;;;;8.73;4.33;;;;;;;;;;5031888;28;20627;-81
2023/05/30 02:38:52;;;;;;;9.63;4.63;;;;;;;;;;4990911;28;20216;-79
2023/05/30 02:41:23;;;;;;;8.63;4.33;;;;;;;;;;5017849;28;20300;-80
2023/05/30 02:43:50;;;;;;;9.10;4.03;;;;;;;;;;5018025;28;20323;-78
2023/05/30 02:46:16;;;;;;;13.07;4.37;;;;;;;;;;5031295;28;20220;-79
2023/05/30 02:48:41;;;;;;;9.63;4.30;;;;;;;;;;5001393;28;20217;-80
2023/05/30 02:51:07;;;;;;;9.10;4.87;;;;;;;;;;4985737;28;20243;-82
2023/05/30 02:53:35;;;;;;;9.83;4.27;;;;;;;;;;4982624;28;20270;-81
2023/05/30 02:56:03;;;;;;;9.23;4.47;;;;;;;;;;4987551;28;20217;-81
2023/05/30 02:58:59;;;;;;;12.60;4.70;;;;;;;;;;5006846;28;20586;-81
2023/05/30 03:01:51;;;;;;;8.70;4.27;;;;;;;;;;5004445;28;20220;-81
2023/05/30 03:04:17;;;;;;;10.57;4.60;;;;;;;;;;5000024;28;20216;-80
2023/05/30 03:06:44;;;;;;;9.30;4.60;;;;;;;;;;5015599;28;20217;-82
2023/05/30 03:09:21;;;;;;;10.97;4.50;;;;;;;;;;4985215;28;20220;-80
2023/05/30 03:11:53;;;;;;;10.37;4.80;;;;;;;;;;5005904;28;20216;-81
2023/05/30 03:14:19;;;;;;;11.73;4.80;;;;;;;;;;5016622;28;20228;-80
2023/05/30 03:16:45;;;;;;;9.37;5.00;;;;;;;;;;5017736;28;20224;-81
2023/05/30 03:19:13;;;;;;;11.30;4.73;;;;;;;;;;4997492;28;20296;-81
2023/05/30 03:21:40;;;;;;;9.43;5.10;;;;;;;;;;5016997;28;20231;-81
2023/05/30 03:24:06;;;;;;;10.13;4.77;;;;;;;;;;4982294;28;20237;-83
2023/05/30 03:26:37;;;;;;;10.73;4.77;;;;;;;;;;5023018;28;20721;-83
2023/05/30 03:29:07;;;;;;;11.00;4.57;;;;;;;;;;4998995;28;20212;-82
2023/05/30 03:31:33;;;;;;;10.47;4.43;;;;;;;;;;5035633;28;20224;-82
2023/05/30 03:34:00;;;;;;;11.13;4.57;;;;;;;;;;5005869;28;20311;-82
2023/05/30 03:36:27;;;;;;;10.20;4.53;;;;;;;;;;5008680;28;20224;-81
2023/05/30 03:38:55;;;;;;;11.80;4.33;;;;;;;;;;5038794;28;20208;-82
2023/05/30 03:41:21;;;;;;;6.77;4.53;;;;;;;;;;4989374;28;20791;-82
2023/05/30 03:43:46;;;;;;;9.57;4.70;;;;;;;;;;4998172;28;21073;-80
2023/05/30 03:46:19;;;;;;;10.90;4.43;;;;;;;;;;5004313;28;20236;-82
2023/05/30 03:48:48;;;;;;;12.37;5.20;;;;;;;;;;5012795;28;20223;-78
2023/05/30 03:51:13;;;;;;;11.07;4.83;;;;;;;;;;5018397;28;20242;-78
2023/05/30 03:53:40;;;;;;;11.37;4.90;;;;;;;;;;4997926;28;20288;-80
2023/05/30 03:56:06;;;;;;;11.33;4.33;;;;;;;;;;5003149;28;20318;-81
2023/05/30 03:58:34;;;;;;;9.00;4.70;;;;;;;;;;5006566;28;20216;-78
2023/05/30 04:01:02;;;;;;;8.40;4.50;;;;;;;;;;5021452;28;20220;-79
2023/05/30 04:03:28;;;;;;;8.23;4.30;;;;;;;;;;5034583;28;20228;-79
2023/05/30 04:05:55;;;;;;;11.23;4.50;;;;;;;;;;5006861;28;20216;-77
2023/05/30 04:08:22;;;;;;;11.83;4.50;;;;;;;;;;5000034;28;20296;-82
2023/05/30 04:10:50;;;;;;;9.87;4.97;;;;;;;;;;5040889;28;20217;-81
2023/05/30 04:13:15;;;;;;;9.10;4.60;;;;;;;;;;5021577;28;20243;-82
2023/05/30 04:15:43;;;;;;;8.33;4.30;;;;;;;;;;5016801;28;20701;-81
2023/05/30 04:18:09;;;;;;;14.10;5.20;;;;;;;;;;5041065;28;20265;-81
2023/05/30 04:20:34;;;;;;;10.20;4.33;;;;;;;;;;5022777;28;20705;-81
2023/05/30 04:23:03;;;;;;;8.43;4.60;;;;;;;;;;5019841;28;20268;-82
2023/05/30 04:25:28;;;;;;;7.70;4.50;;;;;;;;;;5025138;28;20224;-79
2023/05/30 04:27:54;;;;;;;8.23;4.63;;;;;;;;;;5006004;28;20239;-81
2023/05/30 04:30:20;;;;;;;10.00;4.63;;;;;;;;;;5031590;28;20229;-82
2023/05/30 04:32:48;;;;;;;7.00;4.27;;;;;;;;;;5005752;28;20633;-82
2023/05/30 04:35:15;;;;;;;9.73;4.97;;;;;;;;;;5024726;28;20240;-80
2023/05/30 04:37:44;;;;;;;8.33;4.97;;;;;;;;;;5007883;28;20316;-83
2023/05/30 04:40:12;;;;;;;9.87;4.50;;;;;;;;;;4986011;28;20220;-84
2023/05/30 04:42:39;;;;;;;7.60;4.50;;;;;;;;;;4988105;28;20346;-80
2023/05/30 04:45:06;;;;;;;9.90;4.40;;;;;;;;;;5016145;28;20883;-83
2023/05/30 04:47:36;;;;;;;10.37;4.37;;;;;;;;;;4984998;28;20251;-81
2023/05/30 04:50:02;;;;;;;10.27;4.50;;;;;;;;;;4992671;28;20221;-82
2023/05/30 04:52:31;;;;;;;10.00;4.50;;;;;;;;;;5012026;28;20227;-83
2023/05/30 04:54:56;;;;;;;8.20;4.20;;;;;;;;;;4995405;28;20216;-79
2023/05/30 04:57:25;;;;;;;12.03;4.60;;;;;;;;;;5028590;28;20662;-80
2023/05/30 04:59:53;;;;;;;13.23;4.67;;;;;;;;;;5008590;28;20228;-81
2023/05/30 05:02:19;;;;;;;8.83;4.30;;;;;;;;;;4992348;28;20229;-79
2023/05/30 05:04:44;;;;;;;6.60;3.90;;;;;;;;;;5032045;28;20581;-81
2023/05/30 05:07:10;;;;;;;10.37;4.30;;;;;;;;;;5012213;28;20231;-82
2023/05/30 05:09:38;;;;;;;10.53;4.50;;;;;;;;;;5029694;28;20382;-80
2023/05/30 05:12:07;;;;;;;10.77;4.63;;;;;;;;;;5013393;28;20658;-83
2023/05/30 05:14:35;;;;;;;8.40;3.87;;;;;;;;;;5010211;28;20602;-81
2023/05/30 05:17:01;;;;;;;7.20;3.93;;;;;;;;;;5017041;28;20216;-82
2023/05/30 05:19:27;;;;;;;8.80;3.80;;;;;;;;;;5038242;28;20216;-80
2023/05/30 05:21:52;;;;;;;9.57;4.10;;;;;;;;;;5000720;28;20360;-82
2023/05/30 05:24:18;;;;;;;7.80;3.80;;;;;;;;;;4990199;28;20228;-82
2023/05/30 05:26:45;;;;;;;8.47;3.60;;;;;;;;;;5017176;28;20239;-84
2023/05/30 05:29:11;;;;;;;6.37;3.60;;;;;;;;;;5001101;28;20701;-81
2023/05/30 05:31:36;;;;;;;7.73;3.87;;;;;;;;;;5022955;28;20231;-83
2023/05/30 05:34:04;;;;;;;10.90;3.83;;;;;;;;;;5003492;28;20201;-85
2023/05/30 05:36:32;;;;;;;7.47;3.80;;;;;;;;;;4986001;28;20252;-82
2023/05/30 05:39:02;;;;;;;9.67;3.67;;;;;;;;;;4998101;28;20251;-81
2023/05/30 05:41:28;;;;;;;5.80;3.47;;;;;;;;;;5042497;28;20216;-79
2023/05/30 05:43:54;;;;;;;7.43;4.17;;;;;;;;;;5003647;28;20220;-79
2023/05/30 05:46:22;;;;;;;8.73;3.77;;;;;;;;;;5028126;28;20243;-84
2023/05/30 05:48:47;;;;;;;7.17;3.20;;;;;;;;;;5017343;28;20244;-84
2023/05/30 05:51:15;;;;;;;8.23;3.70;;;;;;;;;;5019454;28;20925;-84
2023/05/30 05:53:41;;;;;;;6.83;3.70;;;;;;;;;;5032878;28;20736;-84
2023/05/30 05:56:09;;;;;;;7.20;3.60;;;;;;;;;;4990213;28;20224;-79
2023/05/30 05:58:35;;;;;;;7.07;3.60;;;;;;;;;;4996644;28;20906;-81
2023/05/30 06:01:01;;;;;;;8.40;3.63;;;;;;;;;;4983619;28;20221;-81
2023/05/30 06:03:26;;;;;;;7.33;3.57;;;;;;;;;;4984310;28;20228;-81
2023/05/30 06:05:52;;;;;;;7.75;3.55;;;;;;;;;;5037653;28;20674;-82
2023/05/30 06:08:17;;;;;;;7.47;3.70;;;;;;;;;;4987353;28;20222;-82
2023/05/30 06:10:47;;;;;;;6.87;3.57;;;;;;;;;;5002570;28;20307;-81
2023/05/30 06:13:14;;;;;;;8.43;3.57;;;;;;;;;;5027134;28;20695;-81
2023/05/30 06:15:59;;;;;;;5.87;3.23;;;;;;;;;;5020186;28;20244;-83
2023/05/30 06:18:26;;;;;;;9.60;3.50;;;;;;;;;;5021169;28;20220;-82
2023/05/30 06:20:52;;;;;;;6.03;3.43;;;;;;;;;;5030912;28;20888;-83
2023/05/30 06:23:17;;;;;;;7.57;3.33;;;;;;;;;;4985552;28;20228;-83
2023/05/30 06:25:45;;;;;;;6.73;3.33;;;;;;;;;;4999536;28;20221;-83
2023/05/30 06:28:14;;;;;;;6.83;3.03;;;;;;;;;;5030738;28;20259;-80
2023/05/30 06:30:39;;;;;;;6.50;3.37;;;;;;;;;;5025819;28;20641;-81
2023/05/30 06:33:07;;;;;;;6.10;3.47;;;;;;;;;;5023904;28;20227;-79
2023/05/30 06:35:35;;;;;;;6.70;3.20;;;;;;;;;;5008534;28;20289;-80
2023/05/30 06:38:00;;;;;;;7.47;3.40;;;;;;;;;;5014389;28;20212;-80
2023/05/30 06:40:26;;;;;;;5.47;3.23;;;;;;;;;;5024128;28;20212;-81
2023/05/30 06:42:51;;;;;;;5.27;3.23;;;;;;;;;;4988257;28;20231;-79
2023/05/30 06:45:17;;;;;;;8.05;3.60;;;;;;;;;;5010526;28;20220;-79
2023/05/30 06:47:45;;;;;;;6.82;3.35;;;;;;;;;;5011245;28;20799;-80
2023/05/30 06:50:10;;;;;;;8.05;3.47;;;;;;;;;;5004047;28;20222;-81
2023/05/30 06:52:36;;;;;;;5.33;3.10;;;;;;;;;;5023670;28;20671;-81
2023/05/30 06:55:05;;;;;;;6.90;3.20;;;;;;;;;;5010341;28;20232;-80
2023/05/30 06:57:30;;;;;;;9.20;3.47;;;;;;;;;;5025352;28;20220;-83
2023/05/30 06:59:56;;;;;;;6.55;3.42;;;;;;;;;;5008612;28;20223;-81
2023/05/30 07:02:22;;;;;;;5.10;3.35;;;;;;;;;;4998000;28;20220;-83
2023/05/30 07:04:52;;;;;;;6.85;3.30;;;;;;;;;;4986416;28;20252;-81
2023/05/30 07:07:17;;;;;;;6.32;2.80;;;;;;;;;;5019695;28;20224;-80
2023/05/30 07:09:43;;;;;;;10.27;3.53;;;;;;;;;;4987888;28;20274;-80
2023/05/30 07:12:13;;;;;;;7.00;3.03;;;;;;;;;;4984666;28;20221;-84
2023/05/30 07:14:39;;;;;;;6.15;2.90;;;;;;;;;;4991147;28;20268;-80
2023/05/30 07:17:06;;;;;;;7.53;3.23;;;;;;;;;;5039121;28;20225;-84
2023/05/30 07:19:32;;;;;;;5.00;2.93;;;;;;;;;;5019807;28;20248;-81
2023/05/30 07:21:59;;;;;;;6.63;2.95;;;;;;;;;;4992390;28;20227;-81
2023/05/30 07:24:25;;;;;;;6.63;2.90;;;;;;;;;;5040493;28;20232;-81
2023/05/30 07:26:51;;;;;;;6.60;3.00;;;;;;;;;;4990540;28;20220;-82
2023/05/30 07:29:17;;;;;;;5.20;3.00;;;;;;;;;;5025021;28;20231;-81
2023/05/30 07:31:45;;;;;;;6.97;2.92;;;;;;;;;;5009157;28;20599;-84
2023/05/30 07:34:11;;;;;;;6.82;2.97;;;;;;;;;;4990538;28;20228;-81
2023/05/30 07:36:36;;;;;;;5.00;2.70;;;;;;;;;;5012914;28;20213;-81
2023/05/30 07:39:02;;;;;;;5.22;2.97;;;;;;;;;;4999236;28;20232;-81
2023/05/30 07:41:27;;;;;;;5.70;2.72;;;;;;;;;;5020737;28;20246;-81
2023/05/30 07:43:55;;;;;;;3.60;2.33;;;;;;;;;;5035430;28;20224;-80
2023/05/30 07:46:22;;;;;;;4.82;2.83;;;;;;;;;;5024204;28;20246;-82
2023/05/30 07:48:47;;;;;;;5.70;2.47;;;;;;;;;;4994491;28;20234;-81
2023/05/30 07:51:17;;;;;;;3.60;2.58;;;;;;;;;;5027778;28;20208;-81
2023/05/30 07:53:43;;;;;;;5.15;3.08;;;;;;;;;;5040934;28;20228;-80
2023/05/30 07:56:08;;;;;;;7.65;2.95;;;;;;;;;;4988764;28;20231;-81
2023/05/30 07:58:36;;;;;;;3.92;2.70;;;;;;;;;;5020912;28;20228;-81
2023/05/30 08:01:04;;;;;;;5.95;2.75;;;;;;;;;;5001614;28;20232;-80
2023/05/30 08:03:34;;;;;;;5.90;3.00;;;;;;;;;;5005937;28;20225;-80
2023/05/30 08:06:00;;;;;;;4.60;3.00;;;;;;;;;;5001600;28;20235;-80
2023/05/30 08:08:25;;;;;;;6.07;2.90;;;;;;;;;;5039485;28;20217;-81
2023/05/30 08:10:53;;;;;;;4.07;2.72;;;;;;;;;;5000874;28;20220;-80
2023/05/30 08:13:19;;;;;;;6.53;3.30;;;;;;;;;;5017030;28;20221;-78
2023/05/30 08:15:45;;;;;;;6.82;3.15;;;;;;;;;;5020439;28;20225;-80
2023/05/30 08:18:14;;;;;;;7.40;3.20;;;;;;;;;;4988873;28;20216;-80
2023/05/30 08:20:42;;;;;;;6.28;2.88;;;;;;;;;;5013498;28;20225;-79
2023/05/30 08:23:11;;;;;;;4.95;3.03;;;;;;;;;;5016464;28;20224;-80
2023/05/30 08:25:42;;;;;;;5.68;3.10;;;;;;;;;;4986045;28;20323;-81
2023/05/30 08:28:08;;;;;;;6.47;3.65;;;;;;;;;;5010709;28;20224;-77
2023/05/30 08:30:33;;;;;;;4.88;3.25;;;;;;;;;;4999420;28;20701;-79
2023/05/30 08:32:59;;;;;;;5.15;3.50;;;;;;;;;;5032748;28;20282;-77
2023/05/30 08:35:24;;;;;;;6.00;3.10;;;;;;;;;;4998123;28;20571;-80
2023/05/30 08:37:52;;;;;;;4.28;3.10;;;;;;;;;;5004314;28;20232;-78
2023/05/30 08:40:18;;;;;;;6.82;3.60;;;;;;;;;;5020470;28;20212;-78
2023/05/30 08:42:46;;;;;;;6.82;4.03;;;;;;;;;;4989141;28;20580;-79
2023/05/30 08:45:11;;;;;;;5.50;3.35;;;;;;;;;;4984923;28;20256;-81
2023/05/30 08:47:37;;;;;;;6.37;3.67;;;;;;;;;;5025167;28;20788;-78
2023/05/30 08:50:03;;;;;;;5.85;3.70;;;;;;;;;;5005906;28;20219;-79
2023/05/30 08:52:33;;;;;;;6.90;4.03;;;;;;;;;;5023866;28;20277;-78
2023/05/30 08:55:09;;;;;;;6.82;3.70;;;;;;;;;;5009735;28;20589;-78
2023/05/30 08:57:37;;;;;;;5.13;3.78;;;;;;;;;;5006411;28;20749;-79
2023/05/30 09:00:05;;;;;;;7.85;4.18;;;;;;;;;;5007722;28;20220;-78
2023/05/30 09:02:36;;;;;;;4.78;3.88;;;;;;;;;;5009463;28;20282;-79
2023/05/30 09:05:06;;;;;;;5.75;4.45;;;;;;;;;;5025884;28;20224;-83
2023/05/30 09:07:34;;;;;;;6.35;4.28;;;;;;;;;;4987074;28;20721;-80
2023/05/30 09:09:59;;;;;;;6.40;3.97;;;;;;;;;;5017659;28;20331;-83
2023/05/30 09:12:26;;;;;;;7.55;4.18;;;;;;;;;;4989524;28;20303;-80
2023/05/30 09:14:52;;;;;;;5.20;4.30;;;;;;;;;;5036907;28;20220;-80
2023/05/30 09:17:17;;;;;;;6.47;4.40;;;;;;;;;;5020879;28;20221;-80
2023/05/30 09:19:44;;;;;;;7.40;3.90;;;;;;;;;;5020925;28;20727;-83
2023/05/30 09:22:14;;;;;;;7.25;4.32;;;;;;;;;;5004165;28;20318;-81
2023/05/30 09:25:03;;;;;;;7.38;4.20;;;;;;;;;;5030587;28;20266;-80
2023/05/30 09:27:32;;;;;;;6.68;4.60;;;;;;;;;;5042803;28;20219;-83
2023/05/30 09:30:04;;;;;;;5.30;3.65;;;;;;;;;;5060583;28;20201;-81
2023/05/30 09:32:34;;;;;;;5.00;4.50;;;;;;;;;;5024052;28;20238;-82
2023/05/30 09:35:06;;;;;;;6.45;4.50;;;;;;;;;;5007349;28;20233;-79
2023/05/30 09:37:41;;;;;;;4.82;4.13;;;;;;;;;;5037836;28;20220;-82
2023/05/30 09:40:16;;;;;;;6.47;4.60;;;;;;;;;;5020858;28;20216;-85
2023/05/30 09:42:43;;;;;;;6.00;4.50;;;;;;;;;;5040652;28;20243;-82
2023/05/30 09:45:13;;;;;;;5.10;4.20;;;;;;;;;;5018918;28;20243;-79
2023/05/30 09:47:44;;;;;;;5.35;4.15;;;;;;;;;;4998679;28;20786;-80
2023/05/30 09:50:12;;;;;;;7.45;4.38;;;;;;;;;;4996838;28;20324;-80
2023/05/30 09:52:40;;;;;;;7.57;4.10;;;;;;;;;;5001160;28;20244;-80
2023/05/30 09:55:06;;;;;;;5.30;4.15;;;;;;;;;;5000573;28;20251;-79
2023/05/30 09:57:39;;;;;;;5.75;4.20;;;;;;;;;;4985012;28;20224;-81
2023/05/30 10:00:15;;;;;;;5.65;4.28;;;;;;;;;;4978589;28;20212;-79
2023/05/30 10:02:45;;;;;;;6.45;4.05;;;;;;;;;;5021847;28;20217;-78
2023/05/30 10:05:20;;;;;;;6.35;4.35;;;;;;;;;;5006485;28;20236;-80
2023/05/30 10:07:50;;;;;;;5.90;4.18;;;;;;;;;;5012902;28;20242;-85
2023/05/30 10:10:16;;;;;;;6.85;4.35;;;;;;;;;;5022813;28;20217;-86
2023/05/30 10:12:45;;;;;;;5.53;3.97;;;;;;;;;;4987334;28;20223;-84
2023/05/30 10:15:15;;;;;;;4.85;4.40;;;;;;;;;;4980742;28;20311;-86
2023/05/30 10:17:58;;;;;;;4.28;3.88;;;;;;;;;;5041697;28;20225;-86
2023/05/30 10:20:25;;;;;;;8.60;4.47;;;;;;;;;;4996094;28;20241;-87
2023/05/30 10:22:55;;;;;;;5.40;4.28;;;;;;;;;;4994903;28;20306;-87
2023/05/30 10:25:21;;;;;;;4.63;4.03;;;;;;;;;;5002249;28;20622;-87
2023/05/30 10:27:54;;;;;;;4.20;3.80;;;;;;;;;;5011244;28;20220;-81
2023/05/30 10:30:27;;;;;;;5.90;3.85;;;;;;;;;;5032756;28;20233;-83
2023/05/30 10:33:07;;;;;;;6.18;4.00;;;;;;;;;;5010902;28;20279;-85
2023/05/30 10:35:33;;;;;;;5.78;4.30;;;;;;;;;;5009766;28;20225;-87
2023/05/30 10:38:02;;;;;;;4.78;4.20;;;;;;;;;;5009511;28;20216;-85
2023/05/30 10:40:43;;;;;;;4.88;4.00;;;;;;;;;;4987133;28;20216;-85
2023/05/30 10:43:14;;;;;;;6.65;4.78;;;;;;;;;;5031304;28;20230;-85
2023/05/30 10:46:05;;;;;;;7.40;4.60;;;;;;;;;;5021184;28;20224;-85
2023/05/30 10:48:48;;;;;;;7.15;4.65;;;;;;;;;;4987138;28;20221;-86
2023/05/30 10:51:14;;;;;;;6.28;4.28;;;;;;;;;;5031142;28;20221;-84
2023/05/30 10:53:43;;;;;;;4.68;4.28;;;;;;;;;;4984356;28;20227;-83
2023/05/30 10:56:29;;;;;;;6.57;4.75;;;;;;;;;;4985020;28;20228;-86
2023/05/30 10:58:56;;;;;;;5.93;4.13;;;;;;;;;;5017769;28;20256;-85
2023/05/30 11:01:25;;;;;;;5.78;4.53;;;;;;;;;;4998754;28;20769;-85
2023/05/30 11:04:03;;;;;;;5.65;4.28;;;;;;;;;;4983110;28;20233;-82
2023/05/30 11:06:31;;;;;;;4.72;4.32;;;;;;;;;;5032514;28;20228;-84
2023/05/30 11:09:16;;;;;;;4.47;4.07;;;;;;;;;;4997847;28;20221;-84
2023/05/30 11:11:46;;;;;;;5.75;4.25;;;;;;;;;;4980373;28;20232;-84
2023/05/30 11:14:13;;;;;;;6.18;4.10;;;;;;;;;;4986115;28;20226;-84
2023/05/30 11:16:54;;;;;;;4.82;3.80;;;;;;;;;;5004554;28;20213;-83
2023/05/30 11:19:28;;;;;;;4.60;4.10;;;;;;;;;;5035045;28;20235;-85
2023/05/30 11:21:53;;;;;;;5.22;3.88;;;;;;;;;;5014563;28;20240;-83
2023/05/30 11:24:21;;;;;;;4.80;4.30;;;;;;;;;;4994840;28;20256;-85
2023/05/30 11:27:06;;;;;;;6.00;4.43;;;;;;;;;;4991380;28;20224;-84
2023/05/30 11:29:49;;;;;;;4.97;4.45;;;;;;;;;;5007882;28;20232;-85
2023/05/30 11:32:19;;;;;;;4.25;3.72;;;;;;;;;;5013097;28;20244;-84
2023/05/30 11:34:45;;;;;;;6.28;4.47;;;;;;;;;;4998806;28;20220;-85
2023/05/30 11:37:13;;;;;;;6.22;4.10;;;;;;;;;;5023976;28;20219;-86
2023/05/30 11:39:41;;;;;;;4.35;3.95;;;;;;;;;;4992474;28;20228;-87
2023/05/30 11:42:13;;;;;;;4.88;3.95;;;;;;;;;;5005524;28;20314;-84
2023/05/30 11:44:44;;;;;;;5.28;4.20;;;;;;;;;;5004351;28;20295;-85
2023/05/30 11:47:12;;;;;;;4.72;3.90;;;;;;;;;;5005403;28;20216;-85
2023/05/30 11:49:41;;;;;;;4.38;3.92;;;;;;;;;;4994398;28;20270;-85
2023/05/30 11:52:07;;;;;;;5.18;4.25;;;;;;;;;;5002319;28;20224;-85
2023/05/30 11:54:33;;;;;;;4.15;3.70;;;;;;;;;;4986097;28;20697;-84
2023/05/30 11:57:00;;;;;;;4.22;3.70;;;;;;;;;;5004274;28;20228;-83
2023/05/30 11:59:26;;;;;;;5.28;3.55;;;;;;;;;;5003941;28;20246;-84
2023/05/30 12:01:52;;;;;;;3.45;2.95;;;;;;;;;;5023353;28;20208;-88
2023/05/30 12:04:31;;;;;;;4.30;3.40;;;;;;;;;;5009641;28;20232;-83
2023/05/30 12:06:58;;;;;;;4.00;2.90;;;;;;;;;;5005254;28;20208;-86
2023/05/30 12:09:27;;;;;;;4.68;4.03;;;;;;;;;;4990377;28;20311;-86
2023/05/30 12:12:01;;;;;;;5.25;3.20;;;;;;;;;;5008032;28;20243;-85
2023/05/30 12:14:39;;;;;;;4.45;3.40;;;;;;;;;;4990986;28;20225;-85
2023/05/30 12:17:16;;;;;;;3.58;3.03;;;;;;;;;;4994143;28;20224;-85
2023/05/30 12:19:45;;;;;;;3.65;3.08;;;;;;;;;;5016842;28;20268;-84
2023/05/30 12:22:17;;;;;;;5.00;3.50;;;;;;;;;;5011390;28;20208;-85
2023/05/30 12:24:43;;;;;;;3.15;2.92;;;;;;;;;;5018835;28;20212;-83
2023/05/30 12:27:15;;;;;;;3.97;2.85;;;;;;;;;;5005084;28;20613;-86
2023/05/30 12:29:41;;;;;;;5.13;2.70;;;;;;;;;;5005670;28;20240;-85
2023/05/30 12:32:09;;;;;;;4.32;3.53;;;;;;;;;;5004396;28;20708;-85
2023/05/30 12:34:40;;;;;;;4.32;3.22;;;;;;;;;;5005566;28;20228;-85
2023/05/30 12:37:12;;;;;;;3.88;3.45;;;;;;;;;;5005743;28;20222;-84
2023/05/30 12:40:05;;;;;;;4.35;3.33;;;;;;;;;;5022181;28;20716;-87
2023/05/30 12:42:31;;;;;;;4.97;3.08;;;;;;;;;;5022039;28;20227;-87
2023/05/30 12:44:58;;;;;;;4.72;3.10;;;;;;;;;;5023258;28;20321;-83
2023/05/30 12:47:26;;;;;;;3.58;3.28;;;;;;;;;;4991016;28;20240;-85
2023/05/30 12:50:02;;;;;;;;;;;;;;;;;;;;;
2023/05/30 12:52:31;;;;;;;6.57;3.40;;;;;;;;;;4991842;28;20228;-86
2023/05/30 12:55:00;;;;;;;4.72;3.42;;;;;;;;;;4974851;28;20263;-84
2023/05/30 12:57:28;;;;;;;4.45;3.03;;;;;;;;;;5001826;28;20216;-83
2023/05/30 12:59:56;;;;;;;4.93;3.00;;;;;;;;;;4986072;28;20229;-87
2023/05/30 13:02:26;;;;;;;4.32;2.90;;;;;;;;;;5008387;28;20275;-85
2023/05/30 13:04:57;;;;;;;4.18;3.17;;;;;;;;;;5006965;28;20234;-85
2023/05/30 13:07:38;;;;;;;3.78;3.13;;;;;;;;;;4987714;28;21562;-86
2023/05/30 13:10:14;;;;;;;3.97;3.30;;;;;;;;;;4969905;28;20316;-85
2023/05/30 13:12:42;;;;;;;3.92;3.53;;;;;;;;;;4970150;28;20250;-87
2023/05/30 13:15:11;;;;;;;4.85;3.40;;;;;;;;;;4997050;28;20227;-84
2023/05/30 13:17:50;;;;;;;4.32;3.53;;;;;;;;;;4992289;28;20306;-84
2023/05/30 13:20:16;;;;;;;3.97;3.30;;;;;;;;;;4989727;28;20255;-85
2023/05/30 13:22:44;;;;;;;5.15;3.08;;;;;;;;;;4987350;28;20208;-86
2023/05/30 13:25:41;;;;;;;3.33;3.03;;;;;;;;;;4986654;28;20237;-85
2023/05/30 13:28:17;;;;;;;3.67;3.00;;;;;;;;;;5019338;28;20213;-84
2023/05/30 13:30:55;;;;;;;3.45;2.90;;;;;;;;;;5016696;28;20220;-84
2023/05/30 13:33:39;;;;;;;;;;;;;;;;;;;;;
2023/05/30 13:36:21;;;;;;;;;;;;;;;;;;;;;
2023/05/30 13:38:57;;;;;;;6.15;2.70;;;;;;;;;;5027338;28;20231;-86
2023/05/30 13:41:30;;;;;;;2.60;2.40;;;;;;;;;;4993204;28;20324;-88
2023/05/30 13:43:58;;;;;;;5.13;2.75;;;;;;;;;;4999102;28;20250;-87
2023/05/30 13:46:34;;;;;;;2.72;2.50;;;;;;;;;;4991334;28;20216;-86
2023/05/30 13:49:05;;;;;;;3.28;2.85;;;;;;;;;;4994441;28;20707;-85
2023/05/30 13:51:44;;;;;;;3.75;2.88;;;;;;;;;;4977874;28;20405;-85
2023/05/30 13:54:12;;;;;;;3.47;2.38;;;;;;;;;;4996949;28;20294;-86
2023/05/30 13:56:45;;;;;;;5.35;2.38;;;;;;;;;;4995198;28;20220;-87
2023/05/30 13:59:13;;;;;;;3.85;2.55;;;;;;;;;;5016885;28;20232;-83
2023/05/30 14:01:40;;;;;;;3.15;2.63;;;;;;;;;;5027495;28;20220;-86
2023/05/30 14:04:06;;;;;;;2.63;2.42;;;;;;;;;;5001688;28;20299;-87
2023/05/30 14:06:37;;;;;;;2.50;2.30;;;;;;;;;;4987598;28;20315;-84
2023/05/30 14:09:04;;;;;;;2.53;2.33;;;;;;;;;;4984211;28;20229;-86
2023/05/30 14:11:35;;;;;;;2.63;2.42;;;;;;;;;;5008046;28;20300;-87
2023/05/30 14:14:00;;;;;;;3.15;2.60;;;;;;;;;;5014984;28;20203;-88
2023/05/30 14:16:31;;;;;;;3.40;2.78;;;;;;;;;;5008761;28;20212;-86
2023/05/30 14:18:57;;;;;;;4.68;2.95;;;;;;;;;;5044230;28;20216;-87
2023/05/30 14:21:22;;;;;;;2.95;2.50;;;;;;;;;;5003138;28;20227;-85
2023/05/30 14:23:50;;;;;;;2.72;2.30;;;;;;;;;;5037199;28;20237;-84
2023/05/30 14:26:16;;;;;;;2.80;2.40;;;;;;;;;;4990080;28;20236;-86
2023/05/30 14:28:43;;;;;;;3.40;2.40;;;;;;;;;;5016086;28;20232;-84
2023/05/30 14:31:14;;;;;;;2.25;2.08;;;;;;;;;;5013757;28;20240;-86
2023/05/30 14:33:40;;;;;;;3.30;2.35;;;;;;;;;;5010934;28;20220;-84
2023/05/30 14:36:08;;;;;;;3.00;2.47;;;;;;;;;;5024949;28;20363;-87
2023/05/30 14:38:36;;;;;;;3.35;2.45;;;;;;;;;;4996611;28;20639;-86
2023/05/30 14:41:05;;;;;;;6.38;2.30;;;;;;;;;;4988706;28;20312;-87
2023/05/30 14:43:30;;;;;;;3.38;2.33;;;;;;;;;;5008793;28;20224;-85
2023/05/30 14:45:58;;;;;;;3.55;2.55;;;;;;;;;;5005283;28;20227;-84
2023/05/30 14:48:24;;;;;;;2.90;2.60;;;;;;;;;;5025134;28;20221;-87
2023/05/30 14:51:03;;;;;;;4.63;2.40;;;;;;;;;;4990259;28;20220;-86
2023/05/30 14:53:29;;;;;;;2.50;2.30;;;;;;;;;;5015322;28;20227;-87
2023/05/30 14:55:55;;;;;;;2.85;2.22;;;;;;;;;;4994792;28;20225;-85